Terminal Aerodrome Forecast
Issued by NWS

Home | Current Version | Previous Version | Text Only | Print | Product List | Glossary Off
Versions: 1 2 3 4 5 6 7 8 9 10 11 12 13 14 15 16 17 18

000
FTUS43 KPAH 212300
TAFCGI
TAF
KCGI 212330Z 2200/2224 04004KT P6SM SKC
     FM220900 00000KT 4SM BR MIFG SKC
     FM221400 04006KT P6SM SKC=

USA.gov is the U.S. government's official web portal to all federal, state and local government web resources and services.